createdAt,value
2023-04-02T00:01:01.106Z,101702.75
2023-04-02T00:03:59.669Z,101708.75
2023-04-02T00:06:30.608Z,101709.78
2023-04-02T00:09:04.864Z,101716.00
2023-04-02T00:11:36.149Z,101716.00
2023-04-02T00:14:13.807Z,101715.19
2023-04-02T00:16:40.987Z,101719.16
2023-04-02T00:19:13.038Z,101717.44
2023-04-02T00:21:42.531Z,101717.38
2023-04-02T00:24:17.099Z,101717.19
2023-04-02T00:26:45.352Z,101717.56
2023-04-02T00:29:14.127Z,101728.78
2023-04-02T00:31:52.008Z,101721.13
2023-04-02T00:34:33.821Z,101725.69
2023-04-02T00:37:02.064Z,101725.06
2023-04-02T00:39:31.031Z,101726.41
2023-04-02T00:42:05.906Z,101726.63
2023-04-02T00:44:42.998Z,101727.53
2023-04-02T00:47:20.570Z,101719.88
2023-04-02T00:49:49.273Z,101715.06
2023-04-02T00:52:17.626Z,101722.13
2023-04-02T00:54:52.578Z,101717.72
2023-04-02T00:57:25.922Z,101720.31
2023-04-02T00:59:56.458Z,101713.28
2023-04-02T01:02:31.122Z,101717.66
2023-04-02T01:04:59.998Z,101720.31
2023-04-02T01:07:34.818Z,101721.97
2023-04-02T01:10:04.586Z,101721.88
2023-04-02T01:12:45.146Z,101719.34
2023-04-02T01:15:31.257Z,101721.34
2023-04-02T01:18:01.349Z,101719.63
2023-04-02T01:20:47.489Z,101714.59
2023-04-02T01:23:14.497Z,101717.94
2023-04-02T01:25:48.822Z,101713.47
2023-04-02T01:28:19.776Z,101719.44
2023-04-02T01:30:54.584Z,101703.34
2023-04-02T01:33:26.214Z,101714.00
2023-04-02T01:36:02.031Z,101715.78
2023-04-02T01:38:36.885Z,101720.91
2023-04-02T01:41:17.406Z,101720.19
2023-04-02T01:43:53.302Z,101719.28
2023-04-02T01:46:26.498Z,101719.44
2023-04-02T01:48:54.359Z,101721.06
2023-04-02T01:51:44.659Z,101721.06
2023-04-02T01:54:14.183Z,101719.34
2023-04-02T01:56:41.706Z,101722.03
2023-04-02T01:59:08.703Z,101724.56
2023-04-02T02:01:43.695Z,101721.81
2023-04-02T02:04:13.479Z,101727.88
2023-04-02T02:06:40.716Z,101730.56
2023-04-02T02:09:09.134Z,101726.25
2023-04-02T02:11:36.696Z,101726.41
2023-04-02T02:14:15.063Z,101728.03
2023-04-02T02:16:43.809Z,101733.81
2023-04-02T02:19:37.250Z,101727.66
2023-04-02T02:22:16.547Z,101732.56
2023-04-02T02:24:43.805Z,101729.53
2023-04-02T02:27:19.586Z,101732.06
2023-04-02T02:29:47.250Z,101734.72
2023-04-02T02:32:15.896Z,101736.50
2023-04-02T02:34:56.753Z,101737.25
2023-04-02T02:37:28.514Z,101739.22
2023-04-02T02:40:00.750Z,101741.09
2023-04-02T02:42:27.866Z,101744.00
2023-04-02T02:44:56.766Z,101744.38
2023-04-02T02:47:31.804Z,101738.56
2023-04-02T02:50:06.950Z,101738.13
2023-04-02T02:52:38.431Z,101742.88
2023-04-02T02:55:19.208Z,101745.88
2023-04-02T02:57:55.212Z,101750.53
2023-04-02T03:00:25.374Z,101747.19
2023-04-02T03:02:55.169Z,101748.25
2023-04-02T03:05:26.387Z,101755.41
2023-04-02T03:07:57.682Z,101751.13
2023-04-02T03:10:42.549Z,101753.13
2023-04-02T03:13:20.220Z,101746.63
2023-04-02T03:15:58.903Z,101758.88
2023-04-02T03:18:29.433Z,101765.31
2023-04-02T03:20:59.807Z,101757.59
2023-04-02T03:23:56.724Z,101757.72
2023-04-02T03:26:38.199Z,101760.44
2023-04-02T03:29:09.055Z,101767.59
2023-04-02T03:31:41.948Z,101761.41
2023-04-02T03:34:14.147Z,101757.19
2023-04-02T03:36:43.965Z,101762.16
2023-04-02T03:39:33.241Z,101763.94
2023-04-02T03:42:06.724Z,101761.34
2023-04-02T03:44:57.529Z,101770.03
2023-04-02T03:47:30.995Z,101767.44
2023-04-02T03:50:08.814Z,101769.16
2023-04-02T03:52:37.641Z,101771.66
2023-04-02T03:55:16.164Z,101776.94
2023-04-02T03:58:05.421Z,101775.09
2023-04-02T04:00:38.778Z,101769.88
2023-04-02T04:03:11.806Z,101775.25
2023-04-02T04:05:47.795Z,101776.13
2023-04-02T04:08:17.972Z,101777.44
2023-04-02T04:10:45.271Z,101777.44
2023-04-02T04:13:23.013Z,101781.31
2023-04-02T04:16:05.282Z,101784.28
2023-04-02T04:18:42.231Z,101787.97
2023-04-02T04:21:13.305Z,101791.59
2023-04-02T04:23:41.377Z,101790.38
2023-04-02T04:26:31.404Z,101793.03
2023-04-02T04:29:14.864Z,101800.03
2023-04-02T04:31:49.873Z,101801.16
2023-04-02T04:34:23.162Z,101802.06
2023-04-02T04:37:21.922Z,101801.25
2023-04-02T04:39:51.366Z,101802.28
2023-04-02T04:42:24.724Z,101800.28
2023-04-02T04:45:08.334Z,101798.84
2023-04-02T04:47:51.070Z,101792.84
2023-04-02T04:50:37.192Z,101806.69
2023-04-02T04:53:06.255Z,101801.44
2023-04-02T04:55:33.668Z,101814.72
2023-04-02T04:58:04.649Z,101808.75
2023-04-02T05:00:37.823Z,101820.19
2023-04-02T05:03:19.856Z,101823.44
2023-04-02T05:05:47.202Z,101817.56
2023-04-02T05:08:20.084Z,101833.69
2023-04-02T05:11:00.740Z,101821.09
2023-04-02T05:13:42.681Z,101836.06
2023-04-02T05:16:12.427Z,101835.31
2023-04-02T05:19:00.236Z,101853.25
2023-04-02T05:21:34.733Z,101848.09
2023-04-02T05:24:23.916Z,101852.47
2023-04-02T05:26:52.235Z,101865.44
2023-04-02T05:29:25.940Z,101867.06
2023-04-02T05:32:04.257Z,101878.53
2023-04-02T05:34:37.523Z,101881.50
2023-04-02T05:37:12.792Z,101883.75
2023-04-02T05:39:44.638Z,101878.47
2023-04-02T05:42:18.006Z,101887.06
2023-04-02T05:45:11.567Z,101885.03
2023-04-02T05:47:41.333Z,101891.91
2023-04-02T05:50:30.902Z,101901.44
2023-04-02T05:53:04.365Z,101902.19
2023-04-02T05:55:42.354Z,101905.63
2023-04-02T06:00:59.976Z,101910.38
2023-04-02T06:03:27.663Z,101922.81
2023-04-02T06:05:58.244Z,101917.31
2023-04-02T06:08:30.292Z,101917.47
2023-04-02T06:11:13.782Z,101919.31
2023-04-02T06:13:41.952Z,101921.91
2023-04-02T06:16:13.302Z,101928.84
2023-04-02T06:18:40.627Z,101918.56
2023-04-02T06:21:07.542Z,101928.16
2023-04-02T06:23:34.498Z,101937.19
2023-04-02T06:26:07.879Z,101944.22
2023-04-02T06:28:41.592Z,101951.38
2023-04-02T06:31:23.624Z,101949.59
2023-04-02T06:33:52.599Z,101954.50
2023-04-02T06:36:21.923Z,101966.66
2023-04-02T06:38:50.086Z,101965.34
2023-04-02T06:41:24.050Z,101967.34
2023-04-02T06:44:13.321Z,101968.03
2023-04-02T06:47:12.609Z,101968.72
2023-04-02T06:49:47.107Z,101972.97
2023-04-02T06:52:26.801Z,101975.69
2023-04-02T06:54:54.772Z,101980.44
2023-04-02T06:57:23.602Z,101990.22
2023-04-02T06:59:54.786Z,101985.63
2023-04-02T07:02:42.220Z,101985.84
2023-04-02T07:05:15.993Z,101993.03
2023-04-02T07:07:53.688Z,101998.28
2023-04-02T07:10:28.442Z,102006.91
2023-04-02T07:13:17.317Z,102013.03
2023-04-02T07:15:52.216Z,102015.66
2023-04-02T07:18:31.179Z,102017.47
2023-04-02T07:21:01.546Z,102021.78
2023-04-02T07:23:33.146Z,102022.66
2023-04-02T07:26:02.912Z,102025.41
2023-04-02T07:28:33.426Z,102034.47
2023-04-02T07:31:01.330Z,102037.34
2023-04-02T07:33:30.561Z,102041.88
2023-04-02T07:35:58.285Z,102033.78
2023-04-02T07:38:25.281Z,102036.97
2023-04-02T07:40:52.225Z,102050.06
2023-04-02T07:43:19.243Z,102044.97
2023-04-02T07:45:46.324Z,102058.88
2023-04-02T07:48:13.991Z,102054.44
2023-04-02T07:50:41.351Z,102061.56
2023-04-02T07:53:09.462Z,102051.63
2023-04-02T07:55:37.061Z,102055.41
2023-04-02T07:58:04.406Z,102054.44
2023-04-02T08:00:31.443Z,102061.75
2023-04-02T08:02:58.826Z,102053.50
2023-04-02T08:05:29.074Z,102064.03
2023-04-02T08:07:57.140Z,102056.28
2023-04-02T08:10:25.570Z,102055.94
2023-04-02T08:12:53.325Z,102067.75
2023-04-02T08:15:20.480Z,102064.19
2023-04-02T08:17:50.217Z,102058.78
2023-04-02T08:20:20.901Z,102063.28
2023-04-02T08:22:48.866Z,102068.66
2023-04-02T08:25:16.553Z,102069.97
2023-04-02T08:27:44.854Z,102067.66
2023-04-02T08:30:15.555Z,102059.88
2023-04-02T08:32:43.197Z,102064.75
2023-04-02T08:35:14.234Z,102072.66
2023-04-02T08:37:47.017Z,102061.19
2023-04-02T08:40:41.363Z,102068.16
2023-04-02T08:43:08.397Z,102071.91
2023-04-02T08:45:47.607Z,102073.84
2023-04-02T08:48:16.424Z,102064.81
2023-04-02T08:50:44.593Z,102080.75
2023-04-02T08:53:17.487Z,102081.75
2023-04-02T08:56:03.988Z,102087.50
2023-04-02T08:58:49.548Z,102086.09
2023-04-02T09:01:27.572Z,102089.19
2023-04-02T09:03:57.848Z,102089.84
2023-04-02T09:06:25.452Z,102096.50
2023-04-02T09:08:56.986Z,102097.91
2023-04-02T09:11:54.767Z,102095.53
2023-04-02T09:14:32.153Z,102090.75
2023-04-02T09:17:02.789Z,102096.47
2023-04-02T09:19:42.257Z,102093.63
2023-04-02T09:22:20.177Z,102087.41
2023-04-02T09:24:51.406Z,102085.53
2023-04-02T09:27:22.827Z,102085.06
2023-04-02T09:29:55.460Z,102084.78
2023-04-02T09:32:41.873Z,102087.41
2023-04-02T09:35:25.269Z,102091.94
2023-04-02T09:38:16.423Z,102095.13
2023-04-02T09:40:48.988Z,102102.66
2023-04-02T09:43:18.405Z,102110.94
2023-04-02T09:45:55.546Z,102101.41
2023-04-02T09:48:24.908Z,102099.50
2023-04-02T09:51:03.417Z,102106.47
2023-04-02T09:53:33.577Z,102109.25
2023-04-02T09:56:10.840Z,102113.56
2023-04-02T09:58:38.459Z,102118.06
2023-04-02T10:01:05.583Z,102111.88
2023-04-02T10:03:34.006Z,102116.47
2023-04-02T10:06:09.128Z,102112.19
2023-04-02T10:08:36.707Z,102132.84
2023-04-02T10:11:06.473Z,102140.38
2023-04-02T10:13:53.877Z,102153.63
2023-04-02T10:16:39.900Z,102158.97
2023-04-02T10:19:15.278Z,102155.06
2023-04-02T10:21:44.030Z,102158.88
2023-04-02T10:24:15.749Z,102162.28
2023-04-02T10:26:55.807Z,102156.38
2023-04-02T10:29:32.126Z,102164.31
2023-04-02T10:31:59.140Z,102158.75
2023-04-02T10:34:50.747Z,102158.75
2023-04-02T10:37:43.656Z,102153.91
2023-04-02T10:40:42.630Z,102149.63
2023-04-02T10:43:30.719Z,102154.34
2023-04-02T10:46:01.355Z,102146.69
2023-04-02T10:48:35.831Z,102149.28
2023-04-02T10:51:07.379Z,102149.53
2023-04-02T10:53:40.886Z,102158.09
2023-04-02T10:56:12.113Z,102142.16
2023-04-02T10:58:58.439Z,102150.00
2023-04-02T11:01:29.649Z,102148.44
2023-04-02T11:04:08.741Z,102151.06
2023-04-02T11:06:43.032Z,102139.03
2023-04-02T11:09:22.376Z,102132.28
2023-04-02T11:11:51.677Z,102135.41
2023-04-02T11:14:21.869Z,102139.59
2023-04-02T11:16:50.313Z,102133.25
2023-04-02T11:19:17.345Z,102127.38
2023-04-02T11:21:58.096Z,102107.13
2023-04-02T11:24:30.180Z,102111.44
2023-04-02T11:27:17.427Z,102120.94
2023-04-02T11:29:45.405Z,102110.16
2023-04-02T11:32:25.510Z,102103.78
2023-04-02T11:35:06.534Z,102100.47
2023-04-02T11:37:45.301Z,102098.59
2023-04-02T11:40:12.519Z,102100.59
2023-04-02T11:42:47.473Z,102101.91
2023-04-02T11:45:21.021Z,102098.38
2023-04-02T11:48:09.439Z,102098.81
2023-04-02T11:50:36.809Z,102108.94
2023-04-02T11:53:03.819Z,102109.72
2023-04-02T11:55:48.967Z,102102.44
2023-04-02T11:58:34.817Z,102112.63
2023-04-02T12:01:21.087Z,102107.97
2023-04-02T12:04:07.103Z,102106.97
2023-04-02T12:06:52.723Z,102111.53
2023-04-02T12:09:25.131Z,102114.19
2023-04-02T12:11:57.272Z,102112.50
2023-04-02T12:14:35.491Z,102110.88
2023-04-02T12:17:06.350Z,102100.28
2023-04-02T12:19:35.151Z,102106.94
2023-04-02T12:22:03.594Z,102108.50
2023-04-02T12:24:31.606Z,102105.53
2023-04-02T12:27:28.448Z,102106.06
2023-04-02T12:30:00.230Z,102106.69
2023-04-02T12:32:30.058Z,102100.59
2023-04-02T12:34:58.524Z,102098.03
2023-04-02T12:37:27.403Z,102109.13
2023-04-02T12:39:59.171Z,102110.38
2023-04-02T12:42:31.725Z,102108.69
2023-04-02T12:45:01.684Z,102116.69
2023-04-02T12:47:29.400Z,102109.78
2023-04-02T12:50:01.930Z,102119.41
2023-04-02T12:52:31.101Z,102113.78
2023-04-02T12:54:59.923Z,102104.53
2023-04-02T12:57:28.185Z,102104.72
2023-04-02T13:00:04.528Z,102121.84
2023-04-02T13:02:44.991Z,102102.16
2023-04-02T13:05:13.396Z,102115.19
2023-04-02T13:07:48.435Z,102104.75
2023-04-02T13:10:27.798Z,102095.00
2023-04-02T13:12:56.002Z,102109.03
2023-04-02T13:15:26.580Z,102103.91
2023-04-02T13:18:19.035Z,102105.91
2023-04-02T13:21:01.756Z,102106.19
2023-04-02T13:23:37.983Z,102109.56
2023-04-02T13:26:22.296Z,102109.13
2023-04-02T13:29:00.530Z,102109.75
2023-04-02T13:31:29.476Z,102110.66
2023-04-02T13:33:57.905Z,102118.53
2023-04-02T13:36:31.254Z,102118.66
2023-04-02T13:39:05.762Z,102110.81
2023-04-02T13:41:57.234Z,102075.28
2023-04-02T13:44:25.928Z,102103.28
2023-04-02T13:46:54.867Z,102098.88
2023-04-02T13:49:23.734Z,102096.16
2023-04-02T13:51:53.450Z,102102.19
2023-04-02T13:54:21.149Z,102102.75
2023-04-02T13:56:49.926Z,102103.28
2023-04-02T13:59:18.149Z,102103.19
2023-04-02T14:01:47.801Z,102107.53
2023-04-02T14:04:22.896Z,102102.09
2023-04-02T14:07:09.755Z,102115.09
2023-04-02T14:09:58.175Z,102109.16
2023-04-02T14:12:45.483Z,102109.13
2023-04-02T14:15:22.179Z,102103.59
2023-04-02T14:18:11.910Z,102118.72
2023-04-02T14:21:02.564Z,102123.94
2023-04-02T14:23:33.427Z,102121.91
2023-04-02T14:26:10.925Z,102116.06
2023-04-02T14:29:02.212Z,102106.00
2023-04-02T14:31:35.191Z,102104.09
2023-04-02T14:34:11.307Z,102102.84
2023-04-02T14:36:40.250Z,102100.72
2023-04-02T14:39:30.698Z,102094.84
2023-04-02T14:42:06.589Z,102101.50
2023-04-02T14:44:38.453Z,102106.03
2023-04-02T14:47:17.543Z,102102.88
2023-04-02T14:49:48.643Z,102114.72
2023-04-02T14:52:21.955Z,102111.03
2023-04-02T14:55:03.635Z,102109.00
2023-04-02T14:57:33.937Z,102111.75
2023-04-02T15:00:12.886Z,102126.38
2023-04-02T15:02:46.978Z,102124.94
2023-04-02T15:05:30.131Z,102122.75
2023-04-02T15:08:05.581Z,102128.88
2023-04-02T15:10:40.470Z,102134.19
2023-04-02T15:13:20.621Z,102114.41
2023-04-02T15:16:10.232Z,102137.22
2023-04-02T15:18:39.107Z,102141.63
2023-04-02T15:21:26.232Z,102152.53
2023-04-02T15:23:57.216Z,102159.06
2023-04-02T15:26:35.563Z,102153.88
2023-04-02T15:29:09.349Z,102157.31
2023-04-02T15:31:45.133Z,102155.22
2023-04-02T15:34:13.630Z,102159.63
2023-04-02T15:37:06.468Z,102158.66
2023-04-02T15:39:53.308Z,102176.88
2023-04-02T15:42:34.055Z,102194.09
2023-04-02T15:45:02.417Z,102205.94
2023-04-02T15:47:41.426Z,102212.28
2023-04-02T15:50:40.874Z,102198.72
2023-04-02T15:53:21.186Z,102199.78
2023-04-02T15:56:04.432Z,102195.88
2023-04-02T15:58:32.355Z,102204.38
2023-04-02T16:01:14.503Z,102218.53
2023-04-02T16:03:50.224Z,102209.81
2023-04-02T16:06:19.055Z,102224.38
2023-04-02T16:08:57.511Z,102239.25
2023-04-02T16:11:25.619Z,102239.97
2023-04-02T16:13:54.489Z,102229.41
2023-04-02T16:16:25.970Z,102230.44
2023-04-02T16:19:16.055Z,102214.59
2023-04-02T16:21:49.693Z,102225.28
2023-04-02T16:24:18.365Z,102230.44
2023-04-02T16:27:08.909Z,102229.63
2023-04-02T16:29:55.125Z,102211.91
2023-04-02T16:32:23.940Z,102222.06
2023-04-02T16:34:59.503Z,102220.22
2023-04-02T16:37:39.298Z,102220.09
2023-04-02T16:40:22.447Z,102213.25
2023-04-02T16:43:10.447Z,102218.56
2023-04-02T16:45:56.931Z,102225.22
2023-04-02T16:48:38.563Z,102236.38
2023-04-02T16:51:12.244Z,102232.25
2023-04-02T16:53:54.550Z,102240.94
2023-04-02T16:56:31.170Z,102225.97
2023-04-02T16:58:58.223Z,102244.69
2023-04-02T17:01:35.818Z,102237.84
2023-04-02T17:04:12.134Z,102230.16
2023-04-02T17:06:45.304Z,102237.38
2023-04-02T17:09:23.050Z,102241.84
2023-04-02T17:11:55.966Z,102233.09
2023-04-02T17:14:25.089Z,102235.75
2023-04-02T17:16:56.801Z,102227.25
2023-04-02T17:19:29.353Z,102222.88
2023-04-02T17:22:06.292Z,102240.16
2023-04-02T17:24:33.292Z,102232.50
2023-04-02T17:27:05.587Z,102238.75
2023-04-02T17:29:35.798Z,102239.53
2023-04-02T17:32:04.122Z,102238.22
2023-04-02T17:34:31.519Z,102241.78
2023-04-02T17:37:13.709Z,102249.38
2023-04-02T17:39:59.139Z,102247.50
2023-04-02T17:42:41.250Z,102249.31
2023-04-02T17:45:21.515Z,102249.09
2023-04-02T17:47:56.904Z,102254.19
2023-04-02T17:50:32.928Z,102256.50
2023-04-02T17:53:05.079Z,102250.63
2023-04-02T17:55:41.312Z,102262.78
2023-04-02T17:58:11.659Z,102262.72
2023-04-02T18:00:59.246Z,102261.72
2023-04-02T18:03:28.669Z,102263.66
2023-04-02T18:06:00.032Z,102259.38
2023-04-02T18:08:39.006Z,102267.19
2023-04-02T18:11:06.329Z,102265.25
2023-04-02T18:13:35.914Z,102265.78
2023-04-02T18:16:02.869Z,102264.22
2023-04-02T18:18:42.111Z,102266.84
2023-04-02T18:21:19.119Z,102253.09
2023-04-02T18:24:05.376Z,102276.72
2023-04-02T18:26:33.540Z,102267.22
2023-04-02T18:29:12.805Z,102275.84
2023-04-02T18:31:50.249Z,102281.81
2023-04-02T18:34:18.988Z,102277.28
2023-04-02T18:36:55.647Z,102283.19
2023-04-02T18:39:25.941Z,102291.06
2023-04-02T18:41:59.817Z,102291.75
2023-04-02T18:44:36.627Z,102295.97
2023-04-02T18:47:39.215Z,102303.72
2023-04-02T18:50:24.728Z,102300.16
2023-04-02T18:52:55.738Z,102307.25
2023-04-02T18:55:30.909Z,102308.69
2023-04-02T18:58:13.437Z,102315.59
2023-04-02T19:00:45.174Z,102313.69
2023-04-02T19:03:34.590Z,102310.13
2023-04-02T19:06:05.936Z,102317.63
2023-04-02T19:08:48.375Z,102315.81
2023-04-02T19:11:19.637Z,102317.63
2023-04-02T19:13:48.615Z,102316.53
2023-04-02T19:16:19.840Z,102318.38
2023-04-02T19:18:46.995Z,102325.31
2023-04-02T19:21:33.596Z,102319.13
2023-04-02T19:24:22.883Z,102330.34
2023-04-02T19:26:54.639Z,102332.94
2023-04-02T19:29:30.005Z,102326.00
2023-04-02T19:32:08.539Z,102329.47
2023-04-02T19:34:55.914Z,102335.34
2023-04-02T19:37:32.455Z,102337.22
2023-04-02T19:40:12.864Z,102340.53
2023-04-02T19:42:51.770Z,102337.06
2023-04-02T19:45:28.942Z,102345.56
2023-04-02T19:47:57.284Z,102337.78
2023-04-02T19:50:24.554Z,102341.22
2023-04-02T19:52:51.764Z,102344.69
2023-04-02T19:55:19.152Z,102358.53
2023-04-02T19:57:46.156Z,102355.16
2023-04-02T20:00:14.935Z,102353.91
2023-04-02T20:02:42.181Z,102359.22
2023-04-02T20:05:09.931Z,102361.00
2023-04-02T20:07:39.356Z,102361.81
2023-04-02T20:10:07.203Z,102364.56
2023-04-02T20:12:34.946Z,102358.59
2023-04-02T20:15:02.018Z,102367.19
2023-04-02T20:17:29.435Z,102363.75
2023-04-02T20:19:57.544Z,102368.78
2023-04-02T20:22:24.868Z,102371.25
2023-04-02T20:24:52.546Z,102368.63
2023-04-02T20:27:19.919Z,102375.63
2023-04-02T20:29:50.778Z,102378.25
2023-04-02T20:32:18.075Z,102379.16
2023-04-02T20:34:45.421Z,102387.91
2023-04-02T20:37:13.466Z,102381.78
2023-04-02T20:39:43.694Z,102380.78
2023-04-02T20:42:11.355Z,102385.22
2023-04-02T20:44:38.543Z,102382.34
2023-04-02T20:47:07.247Z,102376.91
2023-04-02T20:49:35.024Z,102383.09
2023-04-02T20:52:02.299Z,102378.84
2023-04-02T20:54:29.235Z,102374.66
2023-04-02T20:56:56.403Z,102379.75
2023-04-02T20:59:23.302Z,102376.38
2023-04-02T21:01:50.428Z,102372.03
2023-04-02T21:04:17.660Z,102376.22
2023-04-02T21:06:44.736Z,102372.50
2023-04-02T21:09:15.042Z,102373.47
2023-04-02T21:11:42.156Z,102370.25
2023-04-02T21:14:09.572Z,102380.63
2023-04-02T21:16:36.724Z,102375.72
2023-04-02T21:19:05.653Z,102370.94
2023-04-02T21:21:33.370Z,102372.94
2023-04-02T21:24:09.602Z,102372.59
2023-04-02T21:26:39.364Z,102368.84
2023-04-02T21:29:10.729Z,102363.97
2023-04-02T21:31:39.348Z,102370.78
2023-04-02T21:34:13.086Z,102368.38
2023-04-02T21:36:51.661Z,102371.69
2023-04-02T21:39:23.010Z,102369.91
2023-04-02T21:41:51.141Z,102369.78
2023-04-02T21:44:19.709Z,102373.97
2023-04-02T21:46:46.899Z,102369.97
2023-04-02T21:49:16.467Z,102368.53
2023-04-02T21:51:44.734Z,102366.59
2023-04-02T21:54:11.666Z,102365.97
2023-04-02T21:56:40.147Z,102368.31
2023-04-02T21:59:08.518Z,102363.03
2023-04-02T22:01:38.727Z,102368.91
2023-04-02T22:04:08.272Z,102369.72
2023-04-02T22:06:39.748Z,102368.63
2023-04-02T22:09:09.618Z,102366.22
2023-04-02T22:11:41.304Z,102368.69
2023-04-02T22:14:08.673Z,102354.09
2023-04-02T22:16:35.885Z,102354.88
2023-04-02T22:19:04.151Z,102349.38
2023-04-02T22:21:31.774Z,102352.91
2023-04-02T22:24:05.729Z,102348.50
2023-04-02T22:26:33.523Z,102346.25
2023-04-02T22:29:01.386Z,102348.50
2023-04-02T22:31:29.811Z,102335.44
2023-04-02T22:33:57.703Z,102344.03
2023-04-02T22:36:25.236Z,102331.78
2023-04-02T22:38:52.478Z,102334.38
2023-04-02T22:41:22.058Z,102331.78
2023-04-02T22:43:49.161Z,102326.28
2023-04-02T22:46:17.181Z,102329.91
2023-04-02T22:48:44.617Z,102326.47
2023-04-02T22:51:13.074Z,102326.34
2023-04-02T22:53:40.149Z,102327.13
2023-04-02T22:56:08.103Z,102321.00
2023-04-02T22:58:35.870Z,102314.09
2023-04-02T23:01:15.687Z,102310.72
2023-04-02T23:03:43.240Z,102313.34
2023-04-02T23:06:12.061Z,102312.44
2023-04-02T23:08:39.593Z,102305.84
2023-04-02T23:11:11.269Z,102307.44
2023-04-02T23:13:39.206Z,102301.44
2023-04-02T23:16:08.320Z,102295.50
2023-04-02T23:18:36.065Z,102297.59
2023-04-02T23:21:03.160Z,102296.75
2023-04-02T23:23:31.806Z,102293.97
2023-04-02T23:26:15.843Z,102293.69
2023-04-02T23:28:42.979Z,102285.69
2023-04-02T23:31:13.467Z,102290.91
2023-04-02T23:33:40.648Z,102293.69
2023-04-02T23:36:09.038Z,102294.38
2023-04-02T23:38:36.489Z,102292.94
2023-04-02T23:41:03.655Z,102290.25
2023-04-02T23:43:30.679Z,102296.31
2023-04-02T23:45:57.728Z,102305.03
2023-04-02T23:48:24.746Z,102297.28
2023-04-02T23:50:51.619Z,102303.31
2023-04-02T23:53:18.933Z,102302.22
2023-04-02T23:55:46.371Z,102297.00
2023-04-02T23:58:13.387Z,102302.25
